sensor_id;sensor_type;location;lat;lon;timestamp;P1;durP1;ratioP1;P2;durP2;ratioP2
4957;SDS011;2494;51.872;9.688;2024-03-02T00:02:10;20.90;;;14.17;;
4957;SDS011;2494;51.872;9.688;2024-03-02T00:04:55;18.03;;;13.30;;
4957;SDS011;2494;51.872;9.688;2024-03-02T00:07:41;19.90;;;13.53;;
4957;SDS011;2494;51.872;9.688;2024-03-02T00:10:27;22.87;;;14.17;;
4957;SDS011;2494;51.872;9.688;2024-03-02T00:13:15;18.37;;;12.37;;
4957;SDS011;2494;51.872;9.688;2024-03-02T00:16:00;24.50;;;13.80;;
4957;SDS011;2494;51.872;9.688;2024-03-02T00:18:45;19.60;;;13.77;;
4957;SDS011;2494;51.872;9.688;2024-03-02T00:21:30;20.70;;;14.20;;
4957;SDS011;2494;51.872;9.688;2024-03-02T00:24:19;19.33;;;13.13;;
4957;SDS011;2494;51.872;9.688;2024-03-02T00:27:05;21.00;;;13.07;;
4957;SDS011;2494;51.872;9.688;2024-03-02T00:29:55;20.73;;;13.00;;
4957;SDS011;2494;51.872;9.688;2024-03-02T00:32:40;18.20;;;12.73;;
4957;SDS011;2494;51.872;9.688;2024-03-02T00:35:28;23.00;;;14.40;;
4957;SDS011;2494;51.872;9.688;2024-03-02T00:38:13;21.10;;;12.70;;
4957;SDS011;2494;51.872;9.688;2024-03-02T00:41:04;19.70;;;12.47;;
4957;SDS011;2494;51.872;9.688;2024-03-02T00:43:57;20.30;;;13.60;;
4957;SDS011;2494;51.872;9.688;2024-03-02T00:46:42;16.60;;;12.03;;
4957;SDS011;2494;51.872;9.688;2024-03-02T00:49:28;24.60;;;15.13;;
4957;SDS011;2494;51.872;9.688;2024-03-02T00:52:13;19.73;;;13.53;;
4957;SDS011;2494;51.872;9.688;2024-03-02T00:54:58;22.67;;;13.33;;
4957;SDS011;2494;51.872;9.688;2024-03-02T00:57:45;20.13;;;12.83;;
4957;SDS011;2494;51.872;9.688;2024-03-02T01:00:30;18.90;;;13.03;;
4957;SDS011;2494;51.872;9.688;2024-03-02T01:03:15;42.87;;;14.73;;
4957;SDS011;2494;51.872;9.688;2024-03-02T01:06:00;21.10;;;15.50;;
4957;SDS011;2494;51.872;9.688;2024-03-02T01:08:45;20.77;;;12.60;;
4957;SDS011;2494;51.872;9.688;2024-03-02T01:11:30;16.70;;;12.73;;
4957;SDS011;2494;51.872;9.688;2024-03-02T01:14:16;20.37;;;13.57;;
4957;SDS011;2494;51.872;9.688;2024-03-02T01:17:02;22.27;;;13.50;;
4957;SDS011;2494;51.872;9.688;2024-03-02T01:19:48;21.00;;;15.10;;
4957;SDS011;2494;51.872;9.688;2024-03-02T01:22:33;20.53;;;12.20;;
4957;SDS011;2494;51.872;9.688;2024-03-02T01:25:19;29.70;;;18.87;;
4957;SDS011;2494;51.872;9.688;2024-03-02T01:28:04;25.23;;;14.37;;
4957;SDS011;2494;51.872;9.688;2024-03-02T01:30:51;30.00;;;14.97;;
4957;SDS011;2494;51.872;9.688;2024-03-02T01:33:36;24.70;;;15.00;;
4957;SDS011;2494;51.872;9.688;2024-03-02T01:36:21;22.67;;;14.53;;
4957;SDS011;2494;51.872;9.688;2024-03-02T01:39:05;23.83;;;14.13;;
4957;SDS011;2494;51.872;9.688;2024-03-02T01:41:52;26.23;;;16.27;;
4957;SDS011;2494;51.872;9.688;2024-03-02T01:44:38;25.43;;;16.33;;
4957;SDS011;2494;51.872;9.688;2024-03-02T01:47:25;25.20;;;16.30;;
4957;SDS011;2494;51.872;9.688;2024-03-02T01:50:10;26.50;;;16.40;;
4957;SDS011;2494;51.872;9.688;2024-03-02T01:52:57;25.60;;;16.30;;
4957;SDS011;2494;51.872;9.688;2024-03-02T01:55:42;25.30;;;15.47;;
4957;SDS011;2494;51.872;9.688;2024-03-02T01:58:27;24.80;;;16.43;;
4957;SDS011;2494;51.872;9.688;2024-03-02T02:01:13;28.07;;;17.40;;
4957;SDS011;2494;51.872;9.688;2024-03-02T02:03:59;26.43;;;16.63;;
4957;SDS011;2494;51.872;9.688;2024-03-02T02:06:44;30.43;;;17.47;;
4957;SDS011;2494;51.872;9.688;2024-03-02T02:09:29;32.07;;;17.80;;
4957;SDS011;2494;51.872;9.688;2024-03-02T02:12:14;24.23;;;17.60;;
4957;SDS011;2494;51.872;9.688;2024-03-02T02:14:59;32.20;;;16.73;;
4957;SDS011;2494;51.872;9.688;2024-03-02T02:17:44;32.90;;;18.20;;
4957;SDS011;2494;51.872;9.688;2024-03-02T02:20:31;28.53;;;16.40;;
4957;SDS011;2494;51.872;9.688;2024-03-02T02:23:17;29.80;;;17.70;;
4957;SDS011;2494;51.872;9.688;2024-03-02T02:26:02;27.83;;;16.37;;
4957;SDS011;2494;51.872;9.688;2024-03-02T02:28:48;27.10;;;15.37;;
4957;SDS011;2494;51.872;9.688;2024-03-02T02:31:36;26.93;;;16.77;;
4957;SDS011;2494;51.872;9.688;2024-03-02T02:34:21;31.20;;;17.60;;
4957;SDS011;2494;51.872;9.688;2024-03-02T02:37:06;25.67;;;17.80;;
4957;SDS011;2494;51.872;9.688;2024-03-02T02:39:53;24.83;;;14.93;;
4957;SDS011;2494;51.872;9.688;2024-03-02T02:42:38;29.20;;;17.30;;
4957;SDS011;2494;51.872;9.688;2024-03-02T02:45:23;32.30;;;18.70;;
4957;SDS011;2494;51.872;9.688;2024-03-02T02:48:08;26.57;;;15.77;;
4957;SDS011;2494;51.872;9.688;2024-03-02T02:50:53;32.03;;;18.17;;
4957;SDS011;2494;51.872;9.688;2024-03-02T02:53:38;35.03;;;18.53;;
4957;SDS011;2494;51.872;9.688;2024-03-02T02:56:25;37.93;;;18.13;;
4957;SDS011;2494;51.872;9.688;2024-03-02T02:59:10;31.30;;;18.97;;
4957;SDS011;2494;51.872;9.688;2024-03-02T03:01:55;28.97;;;17.30;;
4957;SDS011;2494;51.872;9.688;2024-03-02T03:04:41;33.17;;;18.43;;
4957;SDS011;2494;51.872;9.688;2024-03-02T03:07:26;36.17;;;19.60;;
4957;SDS011;2494;51.872;9.688;2024-03-02T03:10:11;34.30;;;18.93;;
4957;SDS011;2494;51.872;9.688;2024-03-02T03:12:58;35.90;;;21.03;;
4957;SDS011;2494;51.872;9.688;2024-03-02T03:15:43;36.60;;;18.90;;
4957;SDS011;2494;51.872;9.688;2024-03-02T03:18:28;35.90;;;20.97;;
4957;SDS011;2494;51.872;9.688;2024-03-02T03:21:13;31.83;;;18.67;;
4957;SDS011;2494;51.872;9.688;2024-03-02T03:23:58;30.10;;;18.60;;
4957;SDS011;2494;51.872;9.688;2024-03-02T03:26:43;42.43;;;21.03;;
4957;SDS011;2494;51.872;9.688;2024-03-02T03:29:29;39.63;;;18.47;;
4957;SDS011;2494;51.872;9.688;2024-03-02T03:32:14;47.23;;;20.67;;
4957;SDS011;2494;51.872;9.688;2024-03-02T03:35:00;42.90;;;20.40;;
4957;SDS011;2494;51.872;9.688;2024-03-02T03:37:45;42.53;;;20.73;;
4957;SDS011;2494;51.872;9.688;2024-03-02T03:40:30;40.90;;;22.00;;
4957;SDS011;2494;51.872;9.688;2024-03-02T03:43:17;44.00;;;22.10;;
4957;SDS011;2494;51.872;9.688;2024-03-02T03:46:04;41.13;;;23.10;;
4957;SDS011;2494;51.872;9.688;2024-03-02T03:48:49;39.87;;;19.97;;
4957;SDS011;2494;51.872;9.688;2024-03-02T03:51:34;40.93;;;21.63;;
4957;SDS011;2494;51.872;9.688;2024-03-02T03:54:20;47.80;;;20.90;;
4957;SDS011;2494;51.872;9.688;2024-03-02T03:57:05;45.50;;;21.50;;
4957;SDS011;2494;51.872;9.688;2024-03-02T03:59:50;49.50;;;23.60;;
4957;SDS011;2494;51.872;9.688;2024-03-02T04:02:36;48.77;;;22.67;;
4957;SDS011;2494;51.872;9.688;2024-03-02T04:05:21;42.07;;;21.63;;
4957;SDS011;2494;51.872;9.688;2024-03-02T04:08:06;36.83;;;21.10;;
4957;SDS011;2494;51.872;9.688;2024-03-02T04:10:51;46.60;;;22.87;;
4957;SDS011;2494;51.872;9.688;2024-03-02T04:13:37;42.13;;;21.43;;
4957;SDS011;2494;51.872;9.688;2024-03-02T04:16:22;46.87;;;25.10;;
4957;SDS011;2494;51.872;9.688;2024-03-02T04:19:08;40.07;;;22.00;;
4957;SDS011;2494;51.872;9.688;2024-03-02T04:21:53;52.17;;;24.43;;
4957;SDS011;2494;51.872;9.688;2024-03-02T04:24:38;43.20;;;23.10;;
4957;SDS011;2494;51.872;9.688;2024-03-02T04:27:23;46.33;;;20.87;;
4957;SDS011;2494;51.872;9.688;2024-03-02T04:30:08;39.37;;;20.97;;
4957;SDS011;2494;51.872;9.688;2024-03-02T04:32:54;42.10;;;20.93;;
4957;SDS011;2494;51.872;9.688;2024-03-02T04:35:40;48.90;;;23.57;;
4957;SDS011;2494;51.872;9.688;2024-03-02T04:38:25;42.20;;;23.37;;
4957;SDS011;2494;51.872;9.688;2024-03-02T04:41:10;46.47;;;22.57;;
4957;SDS011;2494;51.872;9.688;2024-03-02T04:43:55;45.60;;;23.07;;
4957;SDS011;2494;51.872;9.688;2024-03-02T04:46:40;51.93;;;23.37;;
4957;SDS011;2494;51.872;9.688;2024-03-02T04:49:25;46.57;;;22.77;;
4957;SDS011;2494;51.872;9.688;2024-03-02T04:52:11;55.17;;;24.10;;
4957;SDS011;2494;51.872;9.688;2024-03-02T04:54:57;43.90;;;23.83;;
4957;SDS011;2494;51.872;9.688;2024-03-02T04:58:00;44.27;;;23.17;;
4957;SDS011;2494;51.872;9.688;2024-03-02T05:00:45;41.57;;;21.00;;
4957;SDS011;2494;51.872;9.688;2024-03-02T05:03:30;50.23;;;21.87;;
4957;SDS011;2494;51.872;9.688;2024-03-02T05:06:18;42.47;;;22.57;;
4957;SDS011;2494;51.872;9.688;2024-03-02T05:09:05;39.77;;;20.77;;
4957;SDS011;2494;51.872;9.688;2024-03-02T05:11:50;40.47;;;21.07;;
4957;SDS011;2494;51.872;9.688;2024-03-02T05:14:55;42.53;;;20.60;;
4957;SDS011;2494;51.872;9.688;2024-03-02T05:17:40;40.03;;;21.73;;
4957;SDS011;2494;51.872;9.688;2024-03-02T05:20:27;35.77;;;20.00;;
4957;SDS011;2494;51.872;9.688;2024-03-02T05:23:12;34.80;;;20.10;;
4957;SDS011;2494;51.872;9.688;2024-03-02T05:25:58;50.00;;;24.17;;
4957;SDS011;2494;51.872;9.688;2024-03-02T05:28:43;44.70;;;20.33;;
4957;SDS011;2494;51.872;9.688;2024-03-02T05:31:28;40.83;;;20.90;;
4957;SDS011;2494;51.872;9.688;2024-03-02T05:34:13;44.80;;;21.70;;
4957;SDS011;2494;51.872;9.688;2024-03-02T05:36:58;35.90;;;19.43;;
4957;SDS011;2494;51.872;9.688;2024-03-02T05:39:43;43.00;;;18.60;;
4957;SDS011;2494;51.872;9.688;2024-03-02T05:42:29;41.63;;;20.50;;
4957;SDS011;2494;51.872;9.688;2024-03-02T05:45:14;38.90;;;20.57;;
4957;SDS011;2494;51.872;9.688;2024-03-02T05:48:00;40.47;;;21.00;;
4957;SDS011;2494;51.872;9.688;2024-03-02T05:50:45;44.13;;;21.80;;
4957;SDS011;2494;51.872;9.688;2024-03-02T05:53:30;37.30;;;20.03;;
4957;SDS011;2494;51.872;9.688;2024-03-02T05:56:15;45.87;;;19.63;;
4957;SDS011;2494;51.872;9.688;2024-03-02T05:59:02;42.70;;;20.27;;
4957;SDS011;2494;51.872;9.688;2024-03-02T06:01:56;32.60;;;18.10;;
4957;SDS011;2494;51.872;9.688;2024-03-02T06:04:41;36.80;;;19.60;;
4957;SDS011;2494;51.872;9.688;2024-03-02T06:07:26;48.13;;;22.93;;
4957;SDS011;2494;51.872;9.688;2024-03-02T06:10:11;45.60;;;20.67;;
4957;SDS011;2494;51.872;9.688;2024-03-02T06:12:56;38.77;;;20.60;;
4957;SDS011;2494;51.872;9.688;2024-03-02T06:15:44;43.30;;;20.40;;
4957;SDS011;2494;51.872;9.688;2024-03-02T06:18:28;47.93;;;22.73;;
4957;SDS011;2494;51.872;9.688;2024-03-02T06:21:13;41.07;;;21.00;;
4957;SDS011;2494;51.872;9.688;2024-03-02T06:23:58;41.77;;;21.23;;
4957;SDS011;2494;51.872;9.688;2024-03-02T06:26:45;45.97;;;20.60;;
4957;SDS011;2494;51.872;9.688;2024-03-02T06:29:32;42.60;;;20.80;;
4957;SDS011;2494;51.872;9.688;2024-03-02T06:32:18;35.50;;;20.53;;
4957;SDS011;2494;51.872;9.688;2024-03-02T06:35:03;38.37;;;19.57;;
4957;SDS011;2494;51.872;9.688;2024-03-02T06:37:49;38.13;;;20.77;;
4957;SDS011;2494;51.872;9.688;2024-03-02T06:40:35;42.70;;;21.87;;
4957;SDS011;2494;51.872;9.688;2024-03-02T06:43:21;45.33;;;22.43;;
4957;SDS011;2494;51.872;9.688;2024-03-02T06:46:06;47.30;;;20.37;;
4957;SDS011;2494;51.872;9.688;2024-03-02T06:48:54;31.43;;;17.97;;
4957;SDS011;2494;51.872;9.688;2024-03-02T06:51:39;38.80;;;19.00;;
4957;SDS011;2494;51.872;9.688;2024-03-02T06:54:25;41.77;;;22.30;;
4957;SDS011;2494;51.872;9.688;2024-03-02T06:57:10;37.47;;;19.30;;
4957;SDS011;2494;51.872;9.688;2024-03-02T06:59:55;36.57;;;19.97;;
4957;SDS011;2494;51.872;9.688;2024-03-02T07:02:42;38.73;;;18.57;;
4957;SDS011;2494;51.872;9.688;2024-03-02T07:05:29;34.30;;;19.73;;
4957;SDS011;2494;51.872;9.688;2024-03-02T07:08:14;38.43;;;19.17;;
4957;SDS011;2494;51.872;9.688;2024-03-02T07:10:59;38.23;;;21.07;;
4957;SDS011;2494;51.872;9.688;2024-03-02T07:13:44;39.37;;;21.63;;
4957;SDS011;2494;51.872;9.688;2024-03-02T07:16:29;37.47;;;21.13;;
4957;SDS011;2494;51.872;9.688;2024-03-02T07:19:16;30.10;;;19.00;;
4957;SDS011;2494;51.872;9.688;2024-03-02T07:22:03;36.70;;;19.07;;
4957;SDS011;2494;51.872;9.688;2024-03-02T07:24:50;37.83;;;20.20;;
4957;SDS011;2494;51.872;9.688;2024-03-02T07:27:35;40.17;;;21.37;;
4957;SDS011;2494;51.872;9.688;2024-03-02T07:30:20;39.20;;;23.87;;
4957;SDS011;2494;51.872;9.688;2024-03-02T07:33:05;34.17;;;20.20;;
4957;SDS011;2494;51.872;9.688;2024-03-02T07:35:51;41.83;;;20.20;;
4957;SDS011;2494;51.872;9.688;2024-03-02T07:38:38;37.03;;;21.93;;
4957;SDS011;2494;51.872;9.688;2024-03-02T07:41:24;36.40;;;22.13;;
4957;SDS011;2494;51.872;9.688;2024-03-02T07:44:09;37.87;;;22.47;;
4957;SDS011;2494;51.872;9.688;2024-03-02T07:46:58;37.33;;;21.60;;
4957;SDS011;2494;51.872;9.688;2024-03-02T07:49:44;30.30;;;18.33;;
4957;SDS011;2494;51.872;9.688;2024-03-02T07:52:29;37.70;;;21.07;;
4957;SDS011;2494;51.872;9.688;2024-03-02T07:55:15;36.40;;;19.20;;
4957;SDS011;2494;51.872;9.688;2024-03-02T07:58:00;36.03;;;17.60;;
4957;SDS011;2494;51.872;9.688;2024-03-02T08:00:45;28.37;;;17.70;;
4957;SDS011;2494;51.872;9.688;2024-03-02T08:03:31;30.90;;;19.73;;
4957;SDS011;2494;51.872;9.688;2024-03-02T08:06:18;28.07;;;17.70;;
4957;SDS011;2494;51.872;9.688;2024-03-02T08:09:05;30.97;;;18.93;;
4957;SDS011;2494;51.872;9.688;2024-03-02T08:11:55;22.67;;;16.60;;
4957;SDS011;2494;51.872;9.688;2024-03-02T08:14:41;27.93;;;18.93;;
4957;SDS011;2494;51.872;9.688;2024-03-02T08:17:26;30.70;;;17.03;;
4957;SDS011;2494;51.872;9.688;2024-03-02T08:20:11;27.93;;;18.60;;
4957;SDS011;2494;51.872;9.688;2024-03-02T08:22:57;25.57;;;18.37;;
4957;SDS011;2494;51.872;9.688;2024-03-02T08:25:42;25.27;;;17.43;;
4957;SDS011;2494;51.872;9.688;2024-03-02T08:28:28;25.37;;;14.70;;
4957;SDS011;2494;51.872;9.688;2024-03-02T08:31:13;26.07;;;17.50;;
4957;SDS011;2494;51.872;9.688;2024-03-02T08:33:58;25.93;;;17.03;;
4957;SDS011;2494;51.872;9.688;2024-03-02T08:36:44;23.07;;;16.03;;
4957;SDS011;2494;51.872;9.688;2024-03-02T08:39:29;29.60;;;17.17;;
4957;SDS011;2494;51.872;9.688;2024-03-02T08:42:14;26.30;;;16.30;;
4957;SDS011;2494;51.872;9.688;2024-03-02T08:45:01;23.53;;;16.23;;
4957;SDS011;2494;51.872;9.688;2024-03-02T08:47:46;28.10;;;14.97;;
4957;SDS011;2494;51.872;9.688;2024-03-02T08:50:31;25.90;;;17.07;;
4957;SDS011;2494;51.872;9.688;2024-03-02T08:53:16;19.70;;;15.17;;
4957;SDS011;2494;51.872;9.688;2024-03-02T08:56:02;25.20;;;16.67;;
4957;SDS011;2494;51.872;9.688;2024-03-02T08:58:49;23.10;;;16.03;;
4957;SDS011;2494;51.872;9.688;2024-03-02T09:01:36;25.47;;;16.50;;
4957;SDS011;2494;51.872;9.688;2024-03-02T09:04:25;25.90;;;17.67;;
4957;SDS011;2494;51.872;9.688;2024-03-02T09:07:10;29.63;;;19.83;;
4957;SDS011;2494;51.872;9.688;2024-03-02T09:09:55;26.30;;;17.33;;
4957;SDS011;2494;51.872;9.688;2024-03-02T09:12:40;27.57;;;18.07;;
4957;SDS011;2494;51.872;9.688;2024-03-02T09:15:25;27.20;;;18.57;;
4957;SDS011;2494;51.872;9.688;2024-03-02T09:18:11;28.57;;;18.63;;
4957;SDS011;2494;51.872;9.688;2024-03-02T09:20:56;30.57;;;17.47;;
4957;SDS011;2494;51.872;9.688;2024-03-02T09:23:41;34.60;;;18.57;;
4957;SDS011;2494;51.872;9.688;2024-03-02T09:26:28;27.83;;;18.73;;
4957;SDS011;2494;51.872;9.688;2024-03-02T09:29:13;32.20;;;18.60;;
4957;SDS011;2494;51.872;9.688;2024-03-02T09:31:58;33.40;;;19.60;;
4957;SDS011;2494;51.872;9.688;2024-03-02T09:34:44;36.03;;;22.87;;
4957;SDS011;2494;51.872;9.688;2024-03-02T09:37:31;39.83;;;21.77;;
4957;SDS011;2494;51.872;9.688;2024-03-02T09:40:16;35.13;;;22.30;;
4957;SDS011;2494;51.872;9.688;2024-03-02T09:43:01;43.90;;;23.10;;
4957;SDS011;2494;51.872;9.688;2024-03-02T09:45:47;50.00;;;25.53;;
4957;SDS011;2494;51.872;9.688;2024-03-02T09:48:32;46.87;;;25.80;;
4957;SDS011;2494;51.872;9.688;2024-03-02T09:51:19;41.40;;;25.23;;
4957;SDS011;2494;51.872;9.688;2024-03-02T09:54:04;45.40;;;26.20;;
4957;SDS011;2494;51.872;9.688;2024-03-02T09:56:49;42.10;;;24.50;;
4957;SDS011;2494;51.872;9.688;2024-03-02T09:59:34;48.53;;;26.50;;
4957;SDS011;2494;51.872;9.688;2024-03-02T10:02:19;42.20;;;22.20;;
4957;SDS011;2494;51.872;9.688;2024-03-02T10:05:04;37.17;;;20.90;;
4957;SDS011;2494;51.872;9.688;2024-03-02T10:07:55;41.07;;;22.80;;
4957;SDS011;2494;51.872;9.688;2024-03-02T10:10:43;37.00;;;21.57;;
4957;SDS011;2494;51.872;9.688;2024-03-02T10:13:28;41.33;;;21.17;;
4957;SDS011;2494;51.872;9.688;2024-03-02T10:16:13;26.83;;;17.13;;
4957;SDS011;2494;51.872;9.688;2024-03-02T10:18:58;31.73;;;19.27;;
4957;SDS011;2494;51.872;9.688;2024-03-02T10:21:59;29.27;;;17.87;;
4957;SDS011;2494;51.872;9.688;2024-03-02T10:24:45;34.63;;;17.67;;
4957;SDS011;2494;51.872;9.688;2024-03-02T10:27:30;31.17;;;17.37;;
4957;SDS011;2494;51.872;9.688;2024-03-02T10:30:19;21.80;;;15.27;;
4957;SDS011;2494;51.872;9.688;2024-03-02T10:33:05;28.00;;;17.73;;
4957;SDS011;2494;51.872;9.688;2024-03-02T10:35:50;44.73;;;22.83;;
4957;SDS011;2494;51.872;9.688;2024-03-02T10:38:35;39.70;;;23.80;;
4957;SDS011;2494;51.872;9.688;2024-03-02T10:41:23;34.47;;;19.20;;
4957;SDS011;2494;51.872;9.688;2024-03-02T10:44:09;36.30;;;23.30;;
4957;SDS011;2494;51.872;9.688;2024-03-02T10:46:54;43.53;;;23.90;;
4957;SDS011;2494;51.872;9.688;2024-03-02T10:49:41;40.03;;;22.13;;
4957;SDS011;2494;51.872;9.688;2024-03-02T10:52:26;28.40;;;17.27;;
4957;SDS011;2494;51.872;9.688;2024-03-02T10:55:12;21.50;;;14.30;;
4957;SDS011;2494;51.872;9.688;2024-03-02T10:57:58;25.70;;;15.27;;
4957;SDS011;2494;51.872;9.688;2024-03-02T11:00:47;24.17;;;13.07;;
4957;SDS011;2494;51.872;9.688;2024-03-02T11:03:33;24.20;;;14.43;;
4957;SDS011;2494;51.872;9.688;2024-03-02T11:06:19;18.97;;;12.40;;
4957;SDS011;2494;51.872;9.688;2024-03-02T11:09:05;16.27;;;13.40;;
4957;SDS011;2494;51.872;9.688;2024-03-02T11:11:54;18.53;;;12.73;;
4957;SDS011;2494;51.872;9.688;2024-03-02T11:14:42;23.13;;;13.23;;
4957;SDS011;2494;51.872;9.688;2024-03-02T11:17:27;20.10;;;13.03;;
4957;SDS011;2494;51.872;9.688;2024-03-02T11:20:13;25.90;;;18.27;;
4957;SDS011;2494;51.872;9.688;2024-03-02T11:23:04;24.00;;;16.50;;
4957;SDS011;2494;51.872;9.688;2024-03-02T11:25:49;32.00;;;18.93;;
4957;SDS011;2494;51.872;9.688;2024-03-02T11:28:34;35.27;;;18.47;;
4957;SDS011;2494;51.872;9.688;2024-03-02T11:31:21;32.13;;;17.60;;
4957;SDS011;2494;51.872;9.688;2024-03-02T11:34:16;34.10;;;19.27;;
4957;SDS011;2494;51.872;9.688;2024-03-02T11:37:02;33.60;;;19.90;;
4957;SDS011;2494;51.872;9.688;2024-03-02T11:39:48;30.70;;;15.37;;
4957;SDS011;2494;51.872;9.688;2024-03-02T11:42:34;21.03;;;13.40;;
4957;SDS011;2494;51.872;9.688;2024-03-02T11:45:22;19.77;;;13.33;;
4957;SDS011;2494;51.872;9.688;2024-03-02T11:48:08;19.37;;;13.27;;
4957;SDS011;2494;51.872;9.688;2024-03-02T11:50:57;21.37;;;12.90;;
4957;SDS011;2494;51.872;9.688;2024-03-02T11:53:43;18.70;;;13.00;;
4957;SDS011;2494;51.872;9.688;2024-03-02T11:56:29;18.87;;;13.73;;
4957;SDS011;2494;51.872;9.688;2024-03-02T11:59:15;22.73;;;13.47;;
4957;SDS011;2494;51.872;9.688;2024-03-02T12:02:01;18.27;;;12.77;;
4957;SDS011;2494;51.872;9.688;2024-03-02T12:04:48;23.30;;;14.40;;
4957;SDS011;2494;51.872;9.688;2024-03-02T12:07:34;26.93;;;13.53;;
4957;SDS011;2494;51.872;9.688;2024-03-02T12:10:19;26.33;;;17.20;;
4957;SDS011;2494;51.872;9.688;2024-03-02T12:13:04;30.13;;;19.50;;
4957;SDS011;2494;51.872;9.688;2024-03-02T12:15:52;22.80;;;14.87;;
4957;SDS011;2494;51.872;9.688;2024-03-02T12:18:38;20.80;;;14.10;;
4957;SDS011;2494;51.872;9.688;2024-03-02T12:21:25;19.37;;;11.80;;
4957;SDS011;2494;51.872;9.688;2024-03-02T12:24:10;21.77;;;14.40;;
4957;SDS011;2494;51.872;9.688;2024-03-02T12:26:56;22.10;;;14.13;;
4957;SDS011;2494;51.872;9.688;2024-03-02T12:29:41;23.70;;;14.37;;
4957;SDS011;2494;51.872;9.688;2024-03-02T12:32:26;24.97;;;17.33;;
4957;SDS011;2494;51.872;9.688;2024-03-02T12:35:11;25.73;;;14.37;;
4957;SDS011;2494;51.872;9.688;2024-03-02T12:37:59;27.60;;;17.17;;
4957;SDS011;2494;51.872;9.688;2024-03-02T12:40:44;16.63;;;12.90;;
4957;SDS011;2494;51.872;9.688;2024-03-02T12:43:32;16.83;;;11.43;;
4957;SDS011;2494;51.872;9.688;2024-03-02T12:46:17;16.40;;;12.00;;
4957;SDS011;2494;51.872;9.688;2024-03-02T12:49:05;21.60;;;13.63;;
4957;SDS011;2494;51.872;9.688;2024-03-02T12:51:52;22.93;;;14.80;;
4957;SDS011;2494;51.872;9.688;2024-03-02T12:54:39;19.17;;;11.70;;
4957;SDS011;2494;51.872;9.688;2024-03-02T12:57:27;17.67;;;12.30;;
4957;SDS011;2494;51.872;9.688;2024-03-02T13:00:13;16.80;;;10.23;;
4957;SDS011;2494;51.872;9.688;2024-03-02T13:02:59;25.20;;;14.97;;
4957;SDS011;2494;51.872;9.688;2024-03-02T13:05:48;31.43;;;14.43;;
4957;SDS011;2494;51.872;9.688;2024-03-02T13:08:33;27.73;;;14.10;;
4957;SDS011;2494;51.872;9.688;2024-03-02T13:11:20;20.17;;;11.97;;
4957;SDS011;2494;51.872;9.688;2024-03-02T13:14:05;13.60;;;10.13;;
4957;SDS011;2494;51.872;9.688;2024-03-02T13:16:50;10.13;;;7.63;;
4957;SDS011;2494;51.872;9.688;2024-03-02T13:19:36;10.57;;;7.10;;
4957;SDS011;2494;51.872;9.688;2024-03-02T13:22:21;12.17;;;6.67;;
4957;SDS011;2494;51.872;9.688;2024-03-02T13:25:06;5.00;;;3.60;;
4957;SDS011;2494;51.872;9.688;2024-03-02T13:27:55;4.77;;;4.33;;
4957;SDS011;2494;51.872;9.688;2024-03-02T13:30:40;5.63;;;5.13;;
4957;SDS011;2494;51.872;9.688;2024-03-02T13:33:25;5.30;;;4.87;;
4957;SDS011;2494;51.872;9.688;2024-03-02T13:36:10;5.43;;;3.20;;
4957;SDS011;2494;51.872;9.688;2024-03-02T13:38:55;3.80;;;3.50;;
4957;SDS011;2494;51.872;9.688;2024-03-02T13:41:41;3.53;;;3.10;;
4957;SDS011;2494;51.872;9.688;2024-03-02T13:44:30;4.27;;;3.30;;
4957;SDS011;2494;51.872;9.688;2024-03-02T13:47:15;4.00;;;3.60;;
4957;SDS011;2494;51.872;9.688;2024-03-02T13:50:00;4.10;;;3.70;;
4957;SDS011;2494;51.872;9.688;2024-03-02T13:52:46;5.50;;;4.03;;
4957;SDS011;2494;51.872;9.688;2024-03-02T13:55:31;3.47;;;3.00;;
4957;SDS011;2494;51.872;9.688;2024-03-02T13:58:16;4.80;;;4.03;;
4957;SDS011;2494;51.872;9.688;2024-03-02T14:01:03;4.93;;;4.20;;
4957;SDS011;2494;51.872;9.688;2024-03-02T14:03:49;4.23;;;3.83;;
4957;SDS011;2494;51.872;9.688;2024-03-02T14:06:34;4.43;;;3.83;;
4957;SDS011;2494;51.872;9.688;2024-03-02T14:09:19;2.67;;;2.40;;
4957;SDS011;2494;51.872;9.688;2024-03-02T14:12:05;3.70;;;2.87;;
4957;SDS011;2494;51.872;9.688;2024-03-02T14:14:50;3.70;;;3.10;;
4957;SDS011;2494;51.872;9.688;2024-03-02T14:17:38;4.43;;;3.43;;
4957;SDS011;2494;51.872;9.688;2024-03-02T14:20:23;3.27;;;2.97;;
4957;SDS011;2494;51.872;9.688;2024-03-02T14:23:08;2.87;;;2.57;;
4957;SDS011;2494;51.872;9.688;2024-03-02T14:25:55;4.20;;;2.53;;
4957;SDS011;2494;51.872;9.688;2024-03-02T14:28:43;3.33;;;3.03;;
4957;SDS011;2494;51.872;9.688;2024-03-02T14:31:28;4.53;;;2.83;;
4957;SDS011;2494;51.872;9.688;2024-03-02T14:34:14;3.20;;;2.90;;
4957;SDS011;2494;51.872;9.688;2024-03-02T14:37:00;4.07;;;3.37;;
4957;SDS011;2494;51.872;9.688;2024-03-02T14:39:45;3.30;;;3.00;;
4957;SDS011;2494;51.872;9.688;2024-03-02T14:42:30;4.40;;;2.77;;
4957;SDS011;2494;51.872;9.688;2024-03-02T14:45:15;3.77;;;2.90;;
4957;SDS011;2494;51.872;9.688;2024-03-02T14:48:00;3.00;;;2.80;;
4957;SDS011;2494;51.872;9.688;2024-03-02T14:50:47;3.33;;;2.87;;
4957;SDS011;2494;51.872;9.688;2024-03-02T14:53:32;1.80;;;1.67;;
4957;SDS011;2494;51.872;9.688;2024-03-02T14:56:17;3.03;;;2.37;;
4957;SDS011;2494;51.872;9.688;2024-03-02T14:59:02;2.93;;;2.67;;
4957;SDS011;2494;51.872;9.688;2024-03-02T15:01:47;6.97;;;6.27;;
4957;SDS011;2494;51.872;9.688;2024-03-02T15:04:32;14.53;;;7.30;;
4957;SDS011;2494;51.872;9.688;2024-03-02T15:07:18;7.73;;;6.40;;
4957;SDS011;2494;51.872;9.688;2024-03-02T15:10:04;12.77;;;7.00;;
4957;SDS011;2494;51.872;9.688;2024-03-02T15:12:49;7.57;;;6.77;;
4957;SDS011;2494;51.872;9.688;2024-03-02T15:15:34;8.63;;;7.03;;
4957;SDS011;2494;51.872;9.688;2024-03-02T15:18:19;8.43;;;7.50;;
4957;SDS011;2494;51.872;9.688;2024-03-02T15:21:04;9.47;;;6.63;;
4957;SDS011;2494;51.872;9.688;2024-03-02T15:23:50;9.20;;;7.43;;
4957;SDS011;2494;51.872;9.688;2024-03-02T15:26:35;10.57;;;7.30;;
4957;SDS011;2494;51.872;9.688;2024-03-02T15:29:20;6.20;;;5.40;;
4957;SDS011;2494;51.872;9.688;2024-03-02T15:32:08;6.47;;;5.70;;
4957;SDS011;2494;51.872;9.688;2024-03-02T15:34:53;7.67;;;6.87;;
4957;SDS011;2494;51.872;9.688;2024-03-02T15:37:39;7.20;;;6.13;;
4957;SDS011;2494;51.872;9.688;2024-03-02T15:40:25;8.13;;;6.10;;
4957;SDS011;2494;51.872;9.688;2024-03-02T15:43:11;9.27;;;6.03;;
4957;SDS011;2494;51.872;9.688;2024-03-02T15:45:55;10.33;;;5.93;;
4957;SDS011;2494;51.872;9.688;2024-03-02T15:48:40;7.83;;;6.43;;
4957;SDS011;2494;51.872;9.688;2024-03-02T15:51:26;9.67;;;6.37;;
4957;SDS011;2494;51.872;9.688;2024-03-02T15:54:11;8.10;;;6.00;;
4957;SDS011;2494;51.872;9.688;2024-03-02T15:56:57;10.63;;;6.37;;
4957;SDS011;2494;51.872;9.688;2024-03-02T15:59:42;6.87;;;5.60;;
4957;SDS011;2494;51.872;9.688;2024-03-02T16:02:28;8.17;;;5.90;;
4957;SDS011;2494;51.872;9.688;2024-03-02T16:05:13;8.33;;;7.10;;
4957;SDS011;2494;51.872;9.688;2024-03-02T16:07:58;7.47;;;5.67;;
4957;SDS011;2494;51.872;9.688;2024-03-02T16:10:43;8.67;;;7.07;;
4957;SDS011;2494;51.872;9.688;2024-03-02T16:13:29;8.43;;;6.90;;
4957;SDS011;2494;51.872;9.688;2024-03-02T16:16:15;8.07;;;5.87;;
4957;SDS011;2494;51.872;9.688;2024-03-02T16:19:00;6.90;;;5.50;;
4957;SDS011;2494;51.872;9.688;2024-03-02T16:21:46;7.37;;;5.70;;
4957;SDS011;2494;51.872;9.688;2024-03-02T16:24:32;7.50;;;6.47;;
4957;SDS011;2494;51.872;9.688;2024-03-02T16:27:16;8.10;;;6.00;;
4957;SDS011;2494;51.872;9.688;2024-03-02T16:30:04;8.17;;;5.90;;
4957;SDS011;2494;51.872;9.688;2024-03-02T16:32:49;13.10;;;8.43;;
4957;SDS011;2494;51.872;9.688;2024-03-02T16:35:35;9.90;;;7.07;;
4957;SDS011;2494;51.872;9.688;2024-03-02T16:38:20;8.00;;;5.80;;
4957;SDS011;2494;51.872;9.688;2024-03-02T16:41:06;7.00;;;5.40;;
4957;SDS011;2494;51.872;9.688;2024-03-02T16:43:51;6.17;;;5.57;;
4957;SDS011;2494;51.872;9.688;2024-03-02T16:46:38;7.30;;;4.87;;